Time;durP1;ratioP1;P1;durP2;ratioP2;P2;SDS_P1;SDS_P2;PMS_P1;PMS_P2;Temp;Humidity;BMP_temperature;BMP_pressure;BME280_temperature;BME280_humidity;BME280_pressure;Samples;Min_cycle;Max_cycle;Signal;HPM_P1;HPM_P2
2023/10/19 00:00:48;;;;;;;22.50;17.30;;;7.80;99.90;;;;;;5073343;28;20528;-61
2023/10/19 00:03:16;;;;;;;22.30;17.10;;;7.70;99.90;;;;;;5073459;28;20196;-61
2023/10/19 00:05:44;;;;;;;21.65;17.95;;;7.70;99.90;;;;;;5073559;28;20205;-61
2023/10/19 00:08:15;;;;;;;23.08;16.85;;;7.70;99.90;;;;;;5073499;28;20205;-61
2023/10/19 00:10:43;;;;;;;20.23;17.98;;;7.70;99.90;;;;;;5072784;28;20682;-60
2023/10/19 00:13:11;;;;;;;21.17;17.42;;;7.70;99.90;;;;;;5073593;28;20208;-60
2023/10/19 00:15:40;;;;;;;21.50;18.25;;;7.70;99.90;;;;;;5073476;28;20204;-60
2023/10/19 00:18:20;;;;;;;23.90;18.35;;;7.70;99.90;;;;;;5073218;28;20231;-61
2023/10/19 00:20:56;;;;;;;23.08;18.77;;;7.70;99.90;;;;;;5072616;28;20185;-61
2023/10/19 00:23:31;;;;;;;23.85;18.20;;;7.70;99.90;;;;;;5073122;28;20268;-60
2023/10/19 00:25:58;;;;;;;26.33;19.98;;;7.70;99.90;;;;;;5073228;28;20181;-60
2023/10/19 00:28:26;;;;;;;27.60;19.90;;;7.60;99.90;;;;;;5075908;28;20254;-61
2023/10/19 00:30:53;;;;;;;25.38;20.85;;;7.60;99.90;;;;;;5077169;28;20205;-61
2023/10/19 00:33:21;;;;;;;25.73;21.50;;;7.60;99.90;;;;;;5076931;28;20670;-60
2023/10/19 00:36:00;;;;;;;23.33;18.90;;;7.60;99.90;;;;;;5076848;28;20202;-60
2023/10/19 00:38:38;;;;;;;24.88;21.70;;;7.50;99.90;;;;;;5077009;28;20208;-61
2023/10/19 00:41:11;;;;;;;25.60;21.42;;;7.50;99.90;;;;;;5076699;28;20223;-61
2023/10/19 00:43:44;;;;;;;30.80;22.38;;;7.50;99.90;;;;;;5076677;28;20558;-62
2023/10/19 00:46:15;;;;;;;29.33;22.50;;;7.50;99.90;;;;;;5077341;28;20252;-61
2023/10/19 00:48:45;;;;;;;31.58;22.58;;;7.50;99.90;;;;;;5077526;28;20240;-61
2023/10/19 00:51:26;;;;;;;28.33;22.33;;;7.50;99.90;;;;;;5076568;28;20222;-61
2023/10/19 00:53:55;;;;;;;27.90;22.42;;;7.40;99.90;;;;;;5076485;28;20298;-62
2023/10/19 00:56:25;;;;;;;33.33;24.67;;;7.40;99.90;;;;;;5076355;28;20254;-62
2023/10/19 00:58:59;;;;;;;33.78;22.23;;;7.40;99.90;;;;;;5076215;28;20191;-61
2023/10/19 01:01:29;;;;;;;33.28;23.08;;;7.40;99.90;;;;;;5076298;28;20253;-62
2023/10/19 01:03:58;;;;;;;34.00;24.15;;;7.40;99.90;;;;;;5076300;28;20614;-62
2023/10/19 01:06:25;;;;;;;29.48;23.83;;;7.40;99.90;;;;;;5076376;28;20212;-61
2023/10/19 01:08:54;;;;;;;30.33;23.20;;;7.40;99.90;;;;;;5076584;28;20262;-62
2023/10/19 01:11:22;;;;;;;33.60;24.45;;;7.40;99.90;;;;;;5076043;28;20814;-61
2023/10/19 01:13:51;;;;;;;38.17;24.15;;;7.30;99.90;;;;;;5076357;28;20205;-61
2023/10/19 01:16:21;;;;;;;30.42;24.50;;;7.30;99.90;;;;;;5076357;28;20209;-60
2023/10/19 01:18:53;;;;;;;33.30;23.95;;;7.30;99.90;;;;;;5076169;28;20187;-60
2023/10/19 01:21:21;;;;;;;32.65;24.88;;;7.30;99.90;;;;;;5076164;28;20297;-60
2023/10/19 01:23:49;;;;;;;32.90;25.17;;;7.30;99.90;;;;;;5076246;28;20196;-61
2023/10/19 01:26:21;;;;;;;36.00;25.85;;;7.30;99.90;;;;;;5075840;28;20202;-60
2023/10/19 01:28:50;;;;;;;35.10;26.77;;;7.30;99.90;;;;;;5076344;28;20213;-61
2023/10/19 01:31:22;;;;;;;33.78;24.13;;;7.30;99.90;;;;;;5076145;28;20221;-61
2023/10/19 01:33:50;;;;;;;34.90;23.95;;;7.30;99.90;;;;;;5075719;28;20640;-60
2023/10/19 01:36:25;;;;;;;33.67;26.35;;;7.20;99.90;;;;;;5075546;28;20683;-61
2023/10/19 01:38:54;;;;;;;39.97;27.80;;;7.20;99.90;;;;;;5075098;28;20560;-61
2023/10/19 01:41:21;;;;;;;34.40;25.40;;;7.20;99.90;;;;;;5075470;28;20706;-61
2023/10/19 01:43:53;;;;;;;34.58;26.73;;;7.20;99.90;;;;;;5075339;28;20754;-61
2023/10/19 01:46:24;;;;;;;40.50;27.92;;;7.20;99.90;;;;;;5075493;28;20191;-61
2023/10/19 01:48:55;;;;;;;34.60;26.10;;;7.20;99.90;;;;;;5075344;28;20201;-62
2023/10/19 01:51:23;;;;;;;38.75;27.13;;;7.20;99.90;;;;;;5075479;28;20225;-61
2023/10/19 01:53:49;;;;;;;39.80;28.38;;;7.20;99.90;;;;;;5074966;28;20674;-61
2023/10/19 01:56:18;;;;;;;37.15;27.63;;;7.20;99.90;;;;;;5075353;28;20228;-61
2023/10/19 01:58:46;;;;;;;38.35;27.17;;;7.20;99.90;;;;;;5075424;28;20312;-61
2023/10/19 02:01:20;;;;;;;38.85;26.65;;;7.20;99.90;;;;;;5075763;28;20233;-60
2023/10/19 02:03:47;;;;;;;46.00;27.73;;;7.20;99.90;;;;;;5075696;28;20181;-60
2023/10/19 02:06:17;;;;;;;39.35;28.02;;;7.10;99.90;;;;;;5075092;28;20196;-61
2023/10/19 02:08:47;;;;;;;36.92;27.58;;;7.20;99.90;;;;;;5075129;28;20208;-61
2023/10/19 02:11:17;;;;;;;37.55;27.75;;;7.20;99.90;;;;;;5074854;28;20779;-61
2023/10/19 02:13:46;;;;;;;36.17;27.15;;;7.20;99.90;;;;;;5075378;28;20197;-61
2023/10/19 02:16:15;;;;;;;42.65;27.63;;;7.20;99.90;;;;;;5075287;28;20255;-62
2023/10/19 02:18:42;;;;;;;37.72;27.60;;;7.10;99.90;;;;;;5075364;28;20233;-61
2023/10/19 02:21:11;;;;;;;33.50;26.05;;;7.10;99.90;;;;;;5074794;28;20213;-62
2023/10/19 02:23:39;;;;;;;40.85;27.50;;;7.10;99.90;;;;;;5074842;28;20208;-61
2023/10/19 02:26:05;;;;;;;40.50;28.45;;;7.10;99.90;;;;;;5075833;28;20209;-61
2023/10/19 02:28:37;;;;;;;41.75;26.90;;;7.10;99.90;;;;;;5078596;28;20205;-60
2023/10/19 02:31:11;;;;;;;32.65;24.65;;;7.10;99.90;;;;;;5078884;28;20188;-61
2023/10/19 02:33:39;;;;;;;37.30;26.90;;;7.10;99.90;;;;;;5078208;28;20276;-61
2023/10/19 02:36:12;;;;;;;37.90;28.30;;;7.10;99.90;;;;;;5078694;28;20197;-61
2023/10/19 02:38:44;;;;;;;41.35;27.75;;;7.10;99.90;;;;;;5079821;28;20302;-61
2023/10/19 02:41:10;;;;;;;34.15;26.85;;;7.10;99.90;;;;;;5079511;28;20580;-61
2023/10/19 02:43:38;;;;;;;35.38;25.85;;;7.10;99.90;;;;;;5076402;28;20570;-60
2023/10/19 02:46:05;;;;;;;35.15;26.55;;;7.10;99.90;;;;;;5078253;28;20207;-60
2023/10/19 02:48:32;;;;;;;32.03;24.55;;;7.10;99.90;;;;;;5075763;28;20668;-60
2023/10/19 02:51:05;;;;;;;35.00;26.02;;;7.10;99.90;;;;;;5076484;28;20205;-61
2023/10/19 02:53:33;;;;;;;37.42;23.92;;;7.10;99.90;;;;;;5077902;28;20201;-61
2023/10/19 02:56:02;;;;;;;40.88;26.63;;;7.10;99.90;;;;;;5078589;28;20203;-60
2023/10/19 02:58:29;;;;;;;39.60;27.58;;;7.10;99.90;;;;;;5080287;28;20605;-62
2023/10/19 03:00:55;;;;;;;39.85;27.98;;;7.10;99.90;;;;;;5075090;28;20201;-62
2023/10/19 03:03:23;;;;;;;41.67;30.23;;;7.10;99.90;;;;;;5075047;28;20212;-61
2023/10/19 03:05:48;;;;;;;34.92;26.70;;;7.10;99.90;;;;;;5075443;28;20225;-62
2023/10/19 03:08:19;;;;;;;40.80;28.87;;;7.10;99.90;;;;;;5076710;28;20710;-61
2023/10/19 03:10:45;;;;;;;36.97;26.33;;;7.10;99.90;;;;;;5075762;28;20679;-63
2023/10/19 03:13:14;;;;;;;38.37;28.40;;;7.10;99.90;;;;;;5074855;28;20254;-61
2023/10/19 03:15:42;;;;;;;40.40;28.60;;;7.10;99.90;;;;;;5074273;28;20307;-62
2023/10/19 03:18:09;;;;;;;42.13;29.55;;;7.10;99.90;;;;;;5074308;28;20247;-61
2023/10/19 03:20:38;;;;;;;38.67;28.15;;;7.10;99.90;;;;;;5073854;28;20208;-62
2023/10/19 03:23:05;;;;;;;37.42;26.17;;;7.10;99.90;;;;;;5074065;28;20244;-61
2023/10/19 03:25:55;;;;;;;40.28;28.52;;;7.10;99.90;;;;;;5074320;28;20648;-62
2023/10/19 03:28:25;;;;;;;39.50;28.25;;;7.10;99.90;;;;;;5074670;28;20244;-61
2023/10/19 03:30:55;;;;;;;43.00;28.35;;;7.10;99.90;;;;;;5073850;28;20207;-60
2023/10/19 03:33:26;;;;;;;39.78;27.60;;;7.10;99.90;;;;;;5073690;28;20206;-61
2023/10/19 03:35:55;;;;;;;36.60;28.20;;;7.10;99.90;;;;;;5073889;28;20214;-61
2023/10/19 03:38:22;;;;;;;39.17;28.92;;;7.10;99.90;;;;;;5073649;28;20235;-61
2023/10/19 03:40:52;;;;;;;41.95;27.92;;;7.10;99.90;;;;;;5074273;28;20650;-61
2023/10/19 03:43:27;;;;;;;44.08;29.50;;;7.10;99.90;;;;;;5073801;28;20271;-62
2023/10/19 03:45:54;;;;;;;41.75;28.77;;;7.10;99.90;;;;;;5073473;28;20200;-61
2023/10/19 03:48:26;;;;;;;40.58;27.15;;;7.10;99.90;;;;;;5073820;28;20198;-61
2023/10/19 03:50:55;;;;;;;38.65;27.77;;;7.10;99.90;;;;;;5073561;28;20184;-61
2023/10/19 03:53:22;;;;;;;43.00;28.25;;;7.10;99.90;;;;;;5073733;28;20568;-61
2023/10/19 03:55:50;;;;;;;38.08;26.63;;;7.10;99.90;;;;;;5073327;28;20700;-61
2023/10/19 03:58:20;;;;;;;45.13;30.23;;;7.10;99.90;;;;;;5073512;28;20216;-61
2023/10/19 04:00:48;;;;;;;38.20;26.48;;;7.10;99.90;;;;;;5073618;28;20670;-61
2023/10/19 04:03:15;;;;;;;35.53;26.73;;;7.10;99.90;;;;;;5073169;28;20228;-62
2023/10/19 04:05:46;;;;;;;40.65;27.48;;;7.10;99.90;;;;;;5073491;28;20205;-62
2023/10/19 04:08:20;;;;;;;39.75;28.02;;;7.10;99.90;;;;;;5073592;28;20189;-62
2023/10/19 04:12:22;;;;;;;39.33;29.52;;;7.10;99.90;;;;;;5091096;28;20628;-60
2023/10/19 04:14:49;;;;;;;42.22;27.75;;;7.10;99.90;;;;;;5090642;28;20580;-61
2023/10/19 04:17:17;;;;;;;41.05;28.23;;;7.10;99.90;;;;;;5090573;28;20217;-61
2023/10/19 04:19:43;;;;;;;41.15;27.20;;;7.10;99.90;;;;;;5090863;28;20283;-62
2023/10/19 04:22:21;;;;;;;42.40;27.65;;;7.10;99.90;;;;;;5090684;28;20274;-61
2023/10/19 04:24:48;;;;;;;40.92;28.67;;;7.10;99.90;;;;;;5091274;28;20185;-61
2023/10/19 04:27:15;;;;;;;37.10;26.30;;;7.10;99.90;;;;;;5090897;28;20208;-61
2023/10/19 04:29:44;;;;;;;36.42;27.80;;;7.10;99.90;;;;;;5090756;28;20201;-61
2023/10/19 04:32:13;;;;;;;39.60;27.20;;;7.10;99.90;;;;;;5090267;28;20702;-61
2023/10/19 04:34:40;;;;;;;34.38;24.33;;;7.10;99.90;;;;;;5090593;28;20618;-62
2023/10/19 04:37:08;;;;;;;34.88;26.52;;;7.10;99.90;;;;;;5090315;28;20197;-61
2023/10/19 04:39:36;;;;;;;38.92;26.17;;;7.10;99.90;;;;;;5090474;28;20204;-60
2023/10/19 04:42:04;;;;;;;34.88;26.50;;;7.10;99.90;;;;;;5090582;28;20226;-61
2023/10/19 04:44:31;;;;;;;39.17;27.75;;;7.10;99.90;;;;;;5090443;28;20212;-61
2023/10/19 04:46:59;;;;;;;37.63;26.50;;;7.10;99.90;;;;;;5090249;28;20206;-60
2023/10/19 04:49:26;;;;;;;36.83;26.70;;;7.10;99.90;;;;;;5090263;28;20201;-61
2023/10/19 04:51:53;;;;;;;39.42;26.05;;;7.10;99.90;;;;;;5090089;28;20238;-61
2023/10/19 04:54:19;;;;;;;38.60;25.60;;;7.10;99.90;;;;;;5090297;28;20581;-62
2023/10/19 04:56:46;;;;;;;38.05;24.08;;;7.10;99.90;;;;;;5089854;28;20203;-61
2023/10/19 04:59:14;;;;;;;33.83;24.73;;;7.10;99.90;;;;;;5089913;28;20670;-60
2023/10/19 05:01:41;;;;;;;32.58;23.40;;;7.10;99.90;;;;;;5089693;28;20221;-61
2023/10/19 05:04:09;;;;;;;32.55;24.40;;;7.10;99.90;;;;;;5090167;28;20236;-60
2023/10/19 05:06:36;;;;;;;35.55;24.70;;;7.10;99.90;;;;;;5090158;28;20200;-62
2023/10/19 05:09:03;;;;;;;30.30;21.27;;;7.10;99.90;;;;;;5091012;28;20211;-61
2023/10/19 05:11:30;;;;;;;30.15;20.77;;;7.10;99.90;;;;;;5094022;28;20229;-61
2023/10/19 05:13:56;;;;;;;27.98;21.40;;;7.10;99.90;;;;;;5093458;28;20697;-62
2023/10/19 05:16:23;;;;;;;28.67;21.88;;;7.10;99.90;;;;;;5090529;28;20299;-60
2023/10/19 05:18:50;;;;;;;30.85;21.75;;;7.10;99.90;;;;;;5090103;28;20205;-62
2023/10/19 05:21:18;;;;;;;29.52;21.50;;;7.10;99.90;;;;;;5090621;28;20570;-61
2023/10/19 05:23:45;;;;;;;29.23;22.40;;;7.10;99.90;;;;;;5076296;28;20231;-61
2023/10/19 05:26:14;;;;;;;25.25;19.73;;;7.20;99.90;;;;;;5075865;28;20564;-61
2023/10/19 05:28:42;;;;;;;30.95;21.10;;;7.10;99.90;;;;;;5075849;28;20206;-62
2023/10/19 05:31:11;;;;;;;30.23;22.17;;;7.10;99.90;;;;;;5075417;28;20601;-62
2023/10/19 05:33:38;;;;;;;26.67;20.30;;;7.10;99.90;;;;;;5076886;28;20205;-61
2023/10/19 05:36:06;;;;;;;28.13;20.77;;;7.10;99.90;;;;;;5075989;28;20210;-60
2023/10/19 05:38:34;;;;;;;26.33;20.17;;;7.10;99.90;;;;;;5075830;28;20579;-61
2023/10/19 05:41:01;;;;;;;27.42;20.40;;;7.10;99.90;;;;;;5075712;28;20248;-60
2023/10/19 05:43:28;;;;;;;28.05;19.92;;;7.20;99.90;;;;;;5076396;28;20227;-60
2023/10/19 05:45:56;;;;;;;25.65;19.67;;;7.20;99.90;;;;;;5075859;28;20251;-60
2023/10/19 05:48:24;;;;;;;27.70;19.73;;;7.20;99.90;;;;;;5075750;28;20622;-60
2023/10/19 05:50:51;;;;;;;28.90;21.63;;;7.20;99.90;;;;;;5075344;28;20224;-61
2023/10/19 05:53:18;;;;;;;24.90;19.15;;;7.20;99.90;;;;;;5076218;28;20205;-61
2023/10/19 05:55:46;;;;;;;26.20;19.65;;;7.20;99.90;;;;;;5076484;28;20201;-61
2023/10/19 05:58:14;;;;;;;25.13;19.00;;;7.20;99.90;;;;;;5076133;28;20213;-62
2023/10/19 06:00:41;;;;;;;25.42;18.85;;;7.20;99.90;;;;;;5076603;28;20254;-62
2023/10/19 06:03:09;;;;;;;24.02;17.00;;;7.20;99.90;;;;;;5076204;28;20244;-62
2023/10/19 06:05:35;;;;;;;21.35;17.23;;;7.20;99.90;;;;;;5076068;28;20208;-61
2023/10/19 06:08:04;;;;;;;23.13;18.58;;;7.20;99.90;;;;;;5075326;28;20206;-63
2023/10/19 06:10:32;;;;;;;22.85;17.40;;;7.20;99.90;;;;;;5078386;28;20221;-63
2023/10/19 06:13:00;;;;;;;23.90;17.02;;;7.20;99.90;;;;;;5076958;28;20225;-62
2023/10/19 06:15:28;;;;;;;23.17;17.45;;;7.20;99.90;;;;;;5075152;28;20201;-63
2023/10/19 06:17:55;;;;;;;22.05;18.15;;;7.20;99.90;;;;;;5075536;28;20227;-62
2023/10/19 06:20:26;;;;;;;20.80;15.82;;;7.20;99.90;;;;;;5074565;28;20687;-62
2023/10/19 06:22:54;;;;;;;28.00;17.25;;;7.20;99.90;;;;;;5074440;28;20585;-61
2023/10/19 06:25:22;;;;;;;22.08;17.50;;;7.20;99.90;;;;;;5074287;28;20303;-62
2023/10/19 06:27:50;;;;;;;18.52;15.75;;;7.20;99.90;;;;;;5074191;28;20694;-63
2023/10/19 06:30:19;;;;;;;17.65;15.15;;;7.20;99.90;;;;;;5074613;28;20208;-61
2023/10/19 06:32:48;;;;;;;20.70;15.82;;;7.20;99.90;;;;;;5074568;28;20232;-63
2023/10/19 06:35:15;;;;;;;26.95;17.25;;;7.20;99.90;;;;;;5073571;28;20260;-61
2023/10/19 06:37:42;;;;;;;21.10;16.38;;;7.20;99.90;;;;;;5074329;28;20280;-60
2023/10/19 06:40:11;;;;;;;20.42;15.15;;;7.20;99.90;;;;;;5073938;28;20574;-60
2023/10/19 06:42:38;;;;;;;22.38;16.35;;;7.20;99.90;;;;;;5074266;28;20228;-62
2023/10/19 06:45:07;;;;;;;20.45;16.52;;;7.20;99.90;;;;;;5074600;28;20197;-62
2023/10/19 06:47:37;;;;;;;19.23;16.27;;;7.20;99.90;;;;;;5073887;28;20196;-58
2023/10/19 06:50:07;;;;;;;20.42;15.55;;;7.20;99.90;;;;;;5073761;28;20190;-62
2023/10/19 06:52:35;;;;;;;21.23;16.25;;;7.20;99.90;;;;;;5074012;28;20241;-63
2023/10/19 06:55:03;;;;;;;23.95;15.70;;;7.20;99.90;;;;;;5074478;28;20197;-66
2023/10/19 06:57:30;;;;;;;18.83;15.18;;;7.20;99.90;;;;;;5074045;28;20247;-62
2023/10/19 06:59:57;;;;;;;18.17;16.00;;;7.30;99.90;;;;;;5073682;28;20748;-62
2023/10/19 07:02:24;;;;;;;20.77;14.48;;;7.30;99.90;;;;;;5074153;28;20221;-61
2023/10/19 07:04:52;;;;;;;18.42;13.80;;;7.30;99.90;;;;;;5073791;28;20203;-61
2023/10/19 07:07:19;;;;;;;18.38;14.20;;;7.30;99.90;;;;;;5073820;28;20669;-60
2023/10/19 07:09:46;;;;;;;20.13;14.90;;;7.30;99.90;;;;;;5073681;28;20209;-62
2023/10/19 07:12:12;;;;;;;20.30;13.80;;;7.30;99.90;;;;;;5073368;28;20222;-60
2023/10/19 07:14:40;;;;;;;20.77;14.20;;;7.30;99.90;;;;;;5073780;28;20201;-61
2023/10/19 07:17:07;;;;;;;16.75;14.35;;;7.30;99.90;;;;;;5074170;28;20214;-60
2023/10/19 07:19:34;;;;;;;16.38;13.23;;;7.30;99.90;;;;;;5073781;28;20273;-61
2023/10/19 07:22:04;;;;;;;16.83;13.63;;;7.30;99.90;;;;;;5073341;28;20709;-62
2023/10/19 07:24:31;;;;;;;14.88;13.25;;;7.30;99.90;;;;;;5073708;28;20202;-60
2023/10/19 07:27:04;;;;;;;16.30;12.95;;;7.30;99.90;;;;;;5073364;28;20207;-59
2023/10/19 07:29:33;;;;;;;16.33;13.43;;;7.30;99.90;;;;;;5073685;28;20554;-59
2023/10/19 07:32:00;;;;;;;17.00;12.90;;;7.30;99.90;;;;;;5073832;28;20234;-59
2023/10/19 07:34:29;;;;;;;14.77;11.68;;;7.30;99.90;;;;;;5073436;28;20200;-60
2023/10/19 07:36:58;;;;;;;17.70;15.13;;;7.30;99.90;;;;;;5073784;28;20203;-59
2023/10/19 07:39:29;;;;;;;15.52;12.55;;;7.30;99.90;;;;;;5073492;28;20231;-60
2023/10/19 07:41:56;;;;;;;15.05;13.02;;;7.30;99.90;;;;;;5073092;28;20771;-60
2023/10/19 07:44:23;;;;;;;17.40;12.27;;;7.30;99.90;;;;;;5073554;28;20573;-60
2023/10/19 07:46:50;;;;;;;16.73;12.52;;;7.40;99.90;;;;;;5073252;28;20221;-60
2023/10/19 07:49:16;;;;;;;15.77;12.63;;;7.40;99.90;;;;;;5074183;28;20206;-61
2023/10/19 07:51:46;;;;;;;13.23;11.73;;;7.40;99.90;;;;;;5073136;28;20228;-62
2023/10/19 07:54:13;;;;;;;13.18;11.77;;;7.50;99.90;;;;;;5073403;28;20673;-61
2023/10/19 07:56:42;;;;;;;15.40;12.73;;;7.50;99.90;;;;;;5073861;28;20209;-61
2023/10/19 07:59:08;;;;;;;13.75;11.70;;;7.50;99.90;;;;;;5073497;28;20207;-62
2023/10/19 08:01:36;;;;;;;14.65;12.25;;;7.50;99.90;;;;;;5073111;28;20592;-61
2023/10/19 08:04:02;;;;;;;14.00;12.13;;;7.60;99.90;;;;;;5073857;28;20278;-62
2023/10/19 08:06:31;;;;;;;12.35;10.35;;;7.60;99.90;;;;;;5073337;28;20197;-63
2023/10/19 08:08:57;;;;;;;13.68;11.57;;;7.60;99.90;;;;;;5073305;28;20583;-63
2023/10/19 08:11:24;;;;;;;13.50;10.98;;;7.60;99.90;;;;;;5072904;28;20234;-63
2023/10/19 08:13:52;;;;;;;13.00;10.73;;;7.60;99.90;;;;;;5076128;28;20212;-63
2023/10/19 08:16:20;;;;;;;12.73;11.35;;;7.70;99.90;;;;;;5085562;28;20211;-63
2023/10/19 08:18:47;;;;;;;12.85;11.23;;;7.70;99.90;;;;;;5075642;28;20206;-63
2023/10/19 08:21:14;;;;;;;13.90;11.50;;;7.70;99.90;;;;;;5073543;28;20307;-62
2023/10/19 08:23:42;;;;;;;12.98;10.45;;;7.70;99.90;;;;;;5073648;28;20210;-62
2023/10/19 08:26:08;;;;;;;12.75;10.98;;;7.70;99.90;;;;;;5073201;28;20205;-63
2023/10/19 08:28:35;;;;;;;11.45;9.70;;;7.80;99.90;;;;;;5073497;28;20203;-62
2023/10/19 08:31:05;;;;;;;13.35;9.27;;;7.80;99.90;;;;;;5073396;28;20205;-63
2023/10/19 08:33:33;;;;;;;10.25;9.20;;;7.80;99.90;;;;;;5073169;28;20219;-63
2023/10/19 08:36:00;;;;;;;12.20;10.30;;;7.80;99.90;;;;;;5074036;28;20235;-63
2023/10/19 08:38:28;;;;;;;10.57;9.50;;;7.80;99.90;;;;;;5073663;28;20259;-62
2023/10/19 08:40:55;;;;;;;13.77;10.30;;;7.80;99.90;;;;;;5073043;28;20237;-62
2023/10/19 08:43:22;;;;;;;11.70;10.05;;;7.80;99.90;;;;;;5073274;28;20201;-62
2023/10/19 08:45:49;;;;;;;11.40;10.15;;;7.90;99.90;;;;;;5073342;28;20201;-62
2023/10/19 08:48:17;;;;;;;11.75;10.55;;;7.90;99.90;;;;;;5072973;28;20225;-62
2023/10/19 08:50:46;;;;;;;14.43;10.38;;;7.90;99.90;;;;;;5073074;28;20207;-62
2023/10/19 08:53:14;;;;;;;15.30;11.80;;;8.00;99.90;;;;;;5072995;28;20248;-62
2023/10/19 08:55:41;;;;;;;11.38;10.18;;;8.00;99.90;;;;;;5073076;28;20255;-62
2023/10/19 08:58:09;;;;;;;13.75;10.95;;;8.10;99.90;;;;;;5075038;28;20201;-61
2023/10/19 09:00:48;;;;;;;12.25;10.95;;;8.10;99.90;;;;;;5076903;28;20207;-62
2023/10/19 09:03:17;;;;;;;11.70;10.57;;;8.10;99.90;;;;;;5077466;28;20193;-61
2023/10/19 09:05:46;;;;;;;12.13;10.88;;;8.20;99.90;;;;;;5076677;28;20201;-61
2023/10/19 09:08:16;;;;;;;11.90;10.60;;;8.20;99.90;;;;;;5076468;28;20624;-62
2023/10/19 09:10:45;;;;;;;12.55;10.38;;;8.20;99.90;;;;;;5076442;28;20209;-63
2023/10/19 09:13:12;;;;;;;14.35;11.38;;;8.20;99.90;;;;;;5076394;28;20230;-62
2023/10/19 09:15:41;;;;;;;14.55;11.48;;;8.30;99.90;;;;;;5076468;28;20204;-63
2023/10/19 09:18:15;;;;;;;13.63;10.95;;;8.30;99.90;;;;;;5076485;28;20205;-62
2023/10/19 09:20:52;;;;;;;13.45;10.27;;;8.40;99.90;;;;;;5076582;28;20197;-63
2023/10/19 09:23:20;;;;;;;12.45;10.63;;;8.40;99.90;;;;;;5076791;28;20181;-63
2023/10/19 09:25:49;;;;;;;12.18;10.88;;;8.40;99.90;;;;;;5076705;28;20270;-63
2023/10/19 09:28:17;;;;;;;11.80;10.23;;;8.40;99.90;;;;;;5076609;28;20227;-61
2023/10/19 09:30:44;;;;;;;11.23;10.02;;;8.50;99.90;;;;;;5076121;28;20665;-61
2023/10/19 09:33:13;;;;;;;13.57;10.52;;;8.60;99.90;;;;;;5076427;28;20220;-62
2023/10/19 09:35:45;;;;;;;13.00;11.18;;;8.60;99.90;;;;;;5076632;28;20262;-62
2023/10/19 09:38:12;;;;;;;12.27;11.07;;;8.70;99.90;;;;;;5076319;28;20251;-62
2023/10/19 09:40:40;;;;;;;17.00;13.25;;;8.80;99.90;;;;;;5076377;28;20203;-62
2023/10/19 09:43:15;;;;;;;12.30;11.00;;;8.90;99.90;;;;;;5076088;28;20243;-62
2023/10/19 09:45:49;;;;;;;13.43;12.02;;;9.10;99.90;;;;;;5076525;28;20185;-62
2023/10/19 09:48:17;;;;;;;12.98;10.95;;;9.20;99.90;;;;;;5077530;28;20206;-64
2023/10/19 09:50:54;;;;;;;12.23;10.38;;;9.30;99.90;;;;;;5078230;28;20204;-64
2023/10/19 09:53:24;;;;;;;14.70;12.65;;;9.30;99.90;;;;;;5077315;28;20621;-64
2023/10/19 09:55:52;;;;;;;12.20;10.52;;;9.40;99.90;;;;;;5076299;28;20204;-61
2023/10/19 09:58:24;;;;;;;12.40;10.20;;;9.50;99.90;;;;;;5077508;28;20208;-62
2023/10/19 10:00:51;;;;;;;11.65;10.45;;;9.50;99.90;;;;;;5075849;28;20200;-61
2023/10/19 10:03:44;;;;;;;11.50;10.30;;;9.50;99.90;;;;;;5075747;28;20209;-61
2023/10/19 10:06:13;;;;;;;12.27;10.30;;;9.60;99.90;;;;;;5075937;28;20438;-62
2023/10/19 10:08:42;;;;;;;11.43;9.80;;;9.60;99.90;;;;;;5075302;28;20447;-62
2023/10/19 10:11:19;;;;;;;13.32;10.52;;;9.60;99.90;;;;;;5075453;28;20229;-61
2023/10/19 10:13:50;;;;;;;12.07;10.83;;;9.70;99.90;;;;;;5075797;28;20209;-62
2023/10/19 10:16:18;;;;;;;13.37;10.63;;;9.60;99.90;;;;;;5076062;28;20423;-62
2023/10/19 10:18:48;;;;;;;13.70;11.90;;;9.70;99.90;;;;;;5075369;28;20450;-62
2023/10/19 10:21:18;;;;;;;11.80;10.60;;;9.70;99.90;;;;;;5075946;28;20463;-62
2023/10/19 10:23:47;;;;;;;12.40;10.17;;;9.70;99.90;;;;;;5077291;28;20439;-63
2023/10/19 10:26:15;;;;;;;11.57;10.37;;;9.70;99.90;;;;;;5076160;28;20455;-62
2023/10/19 10:28:46;;;;;;;10.57;9.53;;;9.70;99.90;;;;;;5075771;28;20439;-61
2023/10/19 10:31:13;;;;;;;11.27;9.25;;;9.70;99.90;;;;;;5075790;28;20464;-62
2023/10/19 10:33:42;;;;;;;10.97;9.77;;;9.70;99.90;;;;;;5076706;28;20311;-62
2023/10/19 10:36:11;;;;;;;10.20;9.20;;;9.70;99.90;;;;;;5076162;28;20439;-62
2023/10/19 10:38:40;;;;;;;9.20;8.40;;;9.70;99.90;;;;;;5076451;28;20475;-62
2023/10/19 10:41:09;;;;;;;9.47;8.57;;;9.70;99.90;;;;;;5078017;28;20467;-62
2023/10/19 10:43:50;;;;;;;11.10;9.60;;;9.70;99.90;;;;;;5077881;28;20471;-63
2023/10/19 10:46:17;;;;;;;11.55;10.35;;;9.60;99.90;;;;;;5076868;28;20901;-62
2023/10/19 10:48:44;;;;;;;10.83;9.73;;;9.70;99.90;;;;;;5076261;28;20600;-62
2023/10/19 10:51:21;;;;;;;11.97;10.27;;;9.70;99.90;;;;;;5075310;28;20464;-62
2023/10/19 10:53:51;;;;;;;11.67;10.47;;;9.80;99.90;;;;;;5076447;28;20467;-62
2023/10/19 10:56:18;;;;;;;13.73;11.73;;;9.80;99.90;;;;;;5076144;28;20482;-63
2023/10/19 10:58:45;;;;;;;13.40;11.10;;;9.80;99.90;;;;;;5075427;28;20453;-63
2023/10/19 11:01:13;;;;;;;11.50;10.40;;;10.00;99.90;;;;;;5075623;28;20822;-61
2023/10/19 11:03:39;;;;;;;10.73;9.57;;;10.00;99.90;;;;;;5074524;28;20439;-63
2023/10/19 11:06:07;;;;;;;13.33;10.00;;;10.00;99.90;;;;;;5074829;28;20207;-63
2023/10/19 11:08:35;;;;;;;11.63;10.33;;;10.00;99.90;;;;;;5075262;28;20450;-63
2023/10/19 11:11:10;;;;;;;11.37;10.20;;;10.00;99.90;;;;;;5074633;28;20508;-63
2023/10/19 11:13:39;;;;;;;10.97;9.80;;;10.00;99.90;;;;;;5074832;28;20474;-62
2023/10/19 11:16:07;;;;;;;11.07;9.93;;;10.00;99.90;;;;;;5074792;28;20534;-62
2023/10/19 11:18:37;;;;;;;11.73;10.00;;;10.00;99.90;;;;;;5074607;28;20955;-63
2023/10/19 11:21:07;;;;;;;11.43;10.30;;;10.00;99.90;;;;;;5073833;28;20500;-62
2023/10/19 11:23:42;;;;;;;10.20;9.23;;;10.00;99.90;;;;;;5074343;28;20439;-61
2023/10/19 11:26:10;;;;;;;11.00;9.90;;;10.00;99.90;;;;;;5074481;28;20447;-62
2023/10/19 11:28:42;;;;;;;12.57;10.63;;;10.10;99.90;;;;;;5074526;28;20436;-62
2023/10/19 11:31:16;;;;;;;12.47;10.77;;;10.10;99.90;;;;;;5074061;28;20459;-62
2023/10/19 11:33:44;;;;;;;11.23;10.00;;;10.10;99.90;;;;;;5074527;28;20460;-62
2023/10/19 11:36:13;;;;;;;13.43;10.43;;;10.20;99.90;;;;;;5075143;28;20439;-60
2023/10/19 11:38:41;;;;;;;10.50;9.30;;;10.20;99.90;;;;;;5074548;28;20451;-61
2023/10/19 11:41:10;;;;;;;11.10;9.57;;;10.20;99.90;;;;;;5074407;28;20502;-61
2023/10/19 11:43:37;;;;;;;12.37;11.03;;;10.20;99.90;;;;;;5075395;28;20471;-61
2023/10/19 11:46:05;;;;;;;12.53;10.37;;;10.30;99.90;;;;;;5074153;28;20992;-61
2023/10/19 11:48:33;;;;;;;12.73;11.40;;;10.30;99.90;;;;;;5074070;28;20496;-61
2023/10/19 11:51:00;;;;;;;11.60;9.17;;;10.30;99.90;;;;;;5073901;28;20443;-63
2023/10/19 11:53:30;;;;;;;11.10;10.00;;;10.30;99.90;;;;;;5074099;28;20489;-61
2023/10/19 11:55:56;;;;;;;13.43;10.00;;;10.30;99.90;;;;;;5073667;28;20546;-61
2023/10/19 11:58:24;;;;;;;12.10;9.73;;;10.30;99.90;;;;;;5073455;28;20924;-61
2023/10/19 12:00:51;;;;;;;12.30;10.40;;;10.30;99.90;;;;;;5073505;28;20530;-62
2023/10/19 12:03:19;;;;;;;11.90;10.70;;;10.30;99.90;;;;;;5076880;28;20470;-62
2023/10/19 12:05:46;;;;;;;14.57;9.97;;;10.30;99.90;;;;;;5087013;28;20443;-61
2023/10/19 12:08:13;;;;;;;11.00;9.37;;;10.30;99.90;;;;;;5084215;28;20515;-62
2023/10/19 12:10:40;;;;;;;12.40;10.40;;;10.20;99.90;;;;;;5077245;28;20557;-61
2023/10/19 12:13:08;;;;;;;11.80;9.70;;;10.20;99.90;;;;;;5075444;28;20483;-62
2023/10/19 12:15:36;;;;;;;11.13;9.87;;;10.20;99.90;;;;;;5078875;28;20948;-60
2023/10/19 12:18:03;;;;;;;16.23;10.20;;;10.20;99.90;;;;;;5078133;28;20439;-61
2023/10/19 12:20:31;;;;;;;11.13;10.10;;;10.20;99.90;;;;;;5078628;28;20561;-61
2023/10/19 12:22:58;;;;;;;11.60;9.63;;;10.30;99.90;;;;;;5079524;28;21026;-61
2023/10/19 12:25:29;;;;;;;11.53;10.43;;;10.20;99.90;;;;;;5080796;28;20447;-60
2023/10/19 12:27:57;;;;;;;14.17;10.90;;;10.20;99.90;;;;;;5079947;28;20416;-61
2023/10/19 12:30:26;;;;;;;12.70;9.97;;;10.20;99.90;;;;;;5082185;28;20447;-59
2023/10/19 12:32:54;;;;;;;10.33;9.10;;;10.30;99.90;;;;;;5082588;28;20485;-63
2023/10/19 12:35:25;;;;;;;13.17;10.83;;;10.30;99.90;;;;;;5083084;28;21031;-62
2023/10/19 12:37:52;;;;;;;11.23;10.00;;;10.40;99.90;;;;;;5081750;28;20428;-61
2023/10/19 12:40:28;;;;;;;12.10;9.90;;;10.40;99.90;;;;;;5081569;28;20440;-61
2023/10/19 12:42:55;;;;;;;13.67;11.03;;;10.50;99.90;;;;;;5079754;28;20504;-60
2023/10/19 12:45:22;;;;;;;13.90;9.93;;;10.50;99.90;;;;;;5081633;28;20447;-62